Time;durP1;ratioP1;P1;durP2;ratioP2;P2;SDS_P1;SDS_P2;PMS_P1;PMS_P2;Temp;Humidity;BMP_temperature;BMP_pressure;BME280_temperature;BME280_humidity;BME280_pressure;Samples;Min_cycle;Max_cycle;Signal;HPM_P1;HPM_P2
2023/08/28 00:02:00;;;;;;;0.00;0.00;;;;;;;;;;6269334;28;20041;-91
2023/08/28 00:05:01;;;;;;;0.00;0.00;;;;;;;;;;6251312;28;20029;-91
2023/08/28 00:08:02;;;;;;;0.00;0.00;;;;;;;;;;6269507;28;20068;-91
2023/08/28 00:11:02;;;;;;;0.00;0.00;;;;;;;;;;6269381;28;20037;-91
2023/08/28 00:14:02;;;;;;;0.00;0.00;;;;;;;;;;6265924;28;20036;-91
2023/08/28 00:17:05;;;;;;;0.00;0.00;;;;;;;;;;6269623;28;20020;-91
2023/08/28 00:20:08;;;;;;;0.00;0.00;;;;;;;;;;6269600;28;20029;-91
2023/08/28 00:23:09;;;;;;;0.00;0.00;;;;;;;;;;6251339;28;20012;-91
2023/08/28 00:26:09;;;;;;;0.00;0.00;;;;;;;;;;6265973;28;20032;-91
2023/08/28 00:29:09;;;;;;;0.00;0.00;;;;;;;;;;6263479;28;20024;-91
2023/08/28 00:32:09;;;;;;;0.00;0.00;;;;;;;;;;6268569;28;20021;-91
2023/08/28 00:35:09;;;;;;;0.00;0.00;;;;;;;;;;6248776;28;20403;-91
2023/08/28 00:38:10;;;;;;;0.00;0.00;;;;;;;;;;6266312;28;20068;-84
2023/08/28 00:41:11;;;;;;;0.00;0.00;;;;;;;;;;6249990;28;20063;-83
2023/08/28 00:44:11;;;;;;;0.00;0.00;;;;;;;;;;6267907;28;20024;-83
2023/08/28 00:47:13;;;;;;;0.00;0.00;;;;;;;;;;6268554;28;20105;-83
2023/08/28 00:50:13;;;;;;;0.00;0.00;;;;;;;;;;6268211;28;20047;-83
2023/08/28 00:53:14;;;;;;;0.10;0.10;;;;;;;;;;6263320;28;20013;-83
2023/08/28 00:56:14;;;;;;;0.00;0.00;;;;;;;;;;6245092;28;20348;-83
2023/08/28 00:59:15;;;;;;;0.10;0.10;;;;;;;;;;6264893;28;20067;-82
2023/08/28 01:02:15;;;;;;;0.10;0.10;;;;;;;;;;6249704;28;20445;-83
2023/08/28 01:05:16;;;;;;;0.00;0.00;;;;;;;;;;6249732;28;20024;-83
2023/08/28 01:08:19;;;;;;;0.00;0.00;;;;;;;;;;6244089;28;20027;-83
2023/08/28 01:11:31;;;;;;;0.00;0.00;;;;;;;;;;6261720;28;20354;-83
2023/08/28 01:14:33;;;;;;;0.00;0.00;;;;;;;;;;6268028;28;20048;-83
2023/08/28 01:17:35;;;;;;;0.08;0.08;;;;;;;;;;6243333;28;20084;-83
2023/08/28 01:20:36;;;;;;;0.10;0.10;;;;;;;;;;6264064;28;20033;-83
2023/08/28 01:23:46;;;;;;;0.10;0.10;;;;;;;;;;6267549;28;20108;-83
2023/08/28 01:26:46;;;;;;;0.00;0.00;;;;;;;;;;6262395;28;20013;-83
2023/08/28 01:30:03;;;;;;;0.00;0.00;;;;;;;;;;6264757;28;20032;-83
2023/08/28 01:33:04;;;;;;;0.10;0.10;;;;;;;;;;6265053;28;20433;-84
2023/08/28 01:36:22;;;;;;;0.10;0.10;;;;;;;;;;6265874;28;20032;-82
2023/08/28 01:39:26;;;;;;;0.10;0.10;;;;;;;;;;6248810;28;20025;-83
2023/08/28 01:42:28;;;;;;;0.00;0.00;;;;;;;;;;6257187;28;20029;-83
2023/08/28 01:45:28;;;;;;;;;;;;;;;;;;6261734;28;20032;-83
2023/08/28 01:48:29;;;;;;;0.10;0.10;;;;;;;;;;6247734;28;19905;-83
2023/08/28 01:51:29;;;;;;;0.10;0.10;;;;;;;;;;6249519;28;20024;-83
2023/08/28 01:54:29;;;;;;;0.10;0.10;;;;;;;;;;6247987;28;20025;-83
2023/08/28 01:57:29;;;;;;;0.00;0.00;;;;;;;;;;6267032;28;20017;-83
2023/08/28 02:00:30;;;;;;;0.00;0.00;;;;;;;;;;6266707;28;20021;-83
2023/08/28 02:03:30;;;;;;;0.10;0.10;;;;;;;;;;6248486;28;20024;-83
2023/08/28 02:06:33;;;;;;;0.10;0.10;;;;;;;;;;6266584;28;20029;-83
2023/08/28 02:09:33;;;;;;;0.10;0.10;;;;;;;;;;6271000;28;20025;-91
2023/08/28 02:12:33;;;;;;;0.10;0.10;;;;;;;;;;6248250;28;20056;-91
2023/08/28 02:15:33;;;;;;;0.10;0.10;;;;;;;;;;6266498;28;20025;-91
2023/08/28 02:18:34;;;;;;;0.00;0.00;;;;;;;;;;6266997;28;20021;-91
2023/08/28 02:21:34;;;;;;;0.00;0.00;;;;;;;;;;6266800;28;20029;-91
2023/08/28 02:24:34;;;;;;;0.00;0.00;;;;;;;;;;6249330;28;20039;-91
2023/08/28 02:27:34;;;;;;;0.00;0.00;;;;;;;;;;6248444;28;20056;-91
2023/08/28 02:30:34;;;;;;;0.00;0.00;;;;;;;;;;6247983;28;20070;-91
2023/08/28 02:33:35;;;;;;;0.10;0.10;;;;;;;;;;6266330;28;20021;-91
2023/08/28 02:36:35;;;;;;;0.10;0.10;;;;;;;;;;6262109;28;20039;-91
2023/08/28 02:39:35;;;;;;;0.10;0.10;;;;;;;;;;6266211;28;20029;-91
2023/08/28 02:42:35;;;;;;;0.10;0.10;;;;;;;;;;6248440;28;20029;-91
2023/08/28 02:45:38;;;;;;;0.00;0.00;;;;;;;;;;6248861;28;20389;-92
2023/08/28 02:48:38;;;;;;;0.10;0.10;;;;;;;;;;6242252;28;20025;-91
2023/08/28 02:51:38;;;;;;;0.10;0.10;;;;;;;;;;6260384;28;20490;-91
2023/08/28 02:54:38;;;;;;;0.00;0.00;;;;;;;;;;6265287;28;20024;-92
2023/08/28 02:57:39;;;;;;;0.00;0.00;;;;;;;;;;6266712;28;20021;-91
2023/08/28 03:00:41;;;;;;;0.00;0.00;;;;;;;;;;6270923;28;20545;-92
2023/08/28 03:03:41;;;;;;;0.05;0.05;;;;;;;;;;6270470;28;20470;-92
2023/08/28 03:06:41;;;;;;;0.10;0.10;;;;;;;;;;6270377;28;20020;-92
2023/08/28 03:09:42;;;;;;;0.00;0.00;;;;;;;;;;6270592;28;20025;-91
2023/08/28 03:12:42;;;;;;;0.10;0.10;;;;;;;;;;6268230;28;20049;-92
2023/08/28 03:15:42;;;;;;;0.00;0.00;;;;;;;;;;6270124;28;20573;-91
2023/08/28 03:18:43;;;;;;;0.10;0.10;;;;;;;;;;6270383;28;20029;-92
2023/08/28 03:21:43;;;;;;;0.00;0.00;;;;;;;;;;6252419;28;20116;-91
2023/08/28 03:24:43;;;;;;;0.10;0.10;;;;;;;;;;6270358;28;20499;-92
2023/08/28 03:27:43;;;;;;;0.00;0.00;;;;;;;;;;6252026;28;20025;-91
2023/08/28 03:30:43;;;;;;;0.10;0.10;;;;;;;;;;6269250;28;20120;-92
2023/08/28 03:33:44;;;;;;;0.10;0.10;;;;;;;;;;6269244;28;20234;-92
2023/08/28 03:36:44;;;;;;;0.10;0.10;;;;;;;;;;6251854;28;20116;-92
2023/08/28 03:39:44;;;;;;;0.10;0.10;;;;;;;;;;6251217;28;20380;-92
2023/08/28 03:42:44;;;;;;;0.00;0.00;;;;;;;;;;6248635;28;20033;-92
2023/08/28 03:45:44;;;;;;;0.10;0.10;;;;;;;;;;6252396;28;20028;-91
2023/08/28 03:48:45;;;;;;;0.10;0.10;;;;;;;;;;6251736;28;20048;-91
2023/08/28 03:51:45;;;;;;;0.00;0.00;;;;;;;;;;6251445;28;20112;-92
2023/08/28 03:54:45;;;;;;;0.00;0.00;;;;;;;;;;6251521;28;20497;-91
2023/08/28 03:57:46;;;;;;;0.00;0.00;;;;;;;;;;6269772;28;20025;-92
2023/08/28 04:00:46;;;;;;;0.10;0.10;;;;;;;;;;6264237;28;20024;-91
2023/08/28 04:03:46;;;;;;;0.00;0.00;;;;;;;;;;6269221;28;20059;-92
2023/08/28 04:06:46;;;;;;;0.00;0.00;;;;;;;;;;6268993;28;20407;-84
2023/08/28 04:09:47;;;;;;;0.00;0.00;;;;;;;;;;6268569;28;20423;-83
2023/08/28 04:12:47;;;;;;;0.00;0.00;;;;;;;;;;6267717;28;20119;-84
2023/08/28 04:15:47;;;;;;;0.00;0.00;;;;;;;;;;6268638;28;20017;-83
2023/08/28 04:18:47;;;;;;;0.00;0.00;;;;;;;;;;6251092;28;20514;-83
2023/08/28 04:21:48;;;;;;;0.00;0.00;;;;;;;;;;6268129;28;20036;-83
2023/08/28 04:24:51;;;;;;;0.10;0.10;;;;;;;;;;6269350;28;20036;-82
2023/08/28 04:27:51;;;;;;;0.00;0.00;;;;;;;;;;6252113;28;20504;-83
2023/08/28 04:30:52;;;;;;;0.00;0.00;;;;;;;;;;6263745;28;20070;-84
2023/08/28 04:33:52;;;;;;;0.00;0.00;;;;;;;;;;6248426;28;20025;-83
2023/08/28 04:36:53;;;;;;;0.10;0.10;;;;;;;;;;6245794;28;20111;-84
2023/08/28 04:39:53;;;;;;;0.00;0.00;;;;;;;;;;6250334;28;20222;-84
2023/08/28 04:42:54;;;;;;;0.00;0.00;;;;;;;;;;6266673;28;20032;-83
2023/08/28 04:45:54;;;;;;;0.00;0.00;;;;;;;;;;6255629;28;20017;-84
2023/08/28 04:48:55;;;;;;;0.10;0.10;;;;;;;;;;6268697;28;20021;-84
2023/08/28 04:51:55;;;;;;;0.07;0.07;;;;;;;;;;6262621;28;20023;-84
2023/08/28 04:54:55;;;;;;;0.00;0.00;;;;;;;;;;6250193;28;20056;-84
2023/08/28 04:57:56;;;;;;;0.10;0.10;;;;;;;;;;6251219;28;20086;-83
2023/08/28 05:00:57;;;;;;;0.10;0.10;;;;;;;;;;6267917;28;20029;-83
2023/08/28 05:03:57;;;;;;;0.03;0.03;;;;;;;;;;6251879;28;20624;-82
2023/08/28 05:06:57;;;;;;;0.00;0.00;;;;;;;;;;6252275;28;20017;-83
2023/08/28 05:09:58;;;;;;;0.10;0.10;;;;;;;;;;6267667;28;20818;-84
2023/08/28 05:12:59;;;;;;;0.00;0.00;;;;;;;;;;6267758;28;20017;-83
2023/08/28 05:15:59;;;;;;;0.10;0.10;;;;;;;;;;6266512;28;20037;-83
2023/08/28 05:19:00;;;;;;;0.10;0.10;;;;;;;;;;6261853;28;20051;-83
2023/08/28 05:22:00;;;;;;;0.00;0.00;;;;;;;;;;6267846;28;20028;-83
2023/08/28 05:25:00;;;;;;;0.00;0.00;;;;;;;;;;6271331;28;20032;-83
2023/08/28 05:28:00;;;;;;;0.10;0.10;;;;;;;;;;6267415;28;20082;-83
2023/08/28 05:31:02;;;;;;;0.10;0.10;;;;;;;;;;6259982;28;20022;-83
2023/08/28 05:34:02;;;;;;;0.10;0.10;;;;;;;;;;6241619;28;20151;-83
2023/08/28 05:37:02;;;;;;;0.10;0.10;;;;;;;;;;6268622;28;20037;-83
2023/08/28 05:40:04;;;;;;;0.10;0.10;;;;;;;;;;6250960;28;20050;-82
2023/08/28 05:43:05;;;;;;;0.00;0.00;;;;;;;;;;6264742;28;20021;-84
2023/08/28 05:46:06;;;;;;;0.10;0.10;;;;;;;;;;6249431;28;20112;-83
2023/08/28 05:49:07;;;;;;;0.00;0.00;;;;;;;;;;6249274;28;20021;-83
2023/08/28 05:52:07;;;;;;;0.00;0.00;;;;;;;;;;6249236;28;20039;-84
2023/08/28 05:55:07;;;;;;;0.00;0.00;;;;;;;;;;6249117;28;20102;-83
2023/08/28 05:58:07;;;;;;;0.00;0.00;;;;;;;;;;6264233;28;20029;-83
2023/08/28 06:01:09;;;;;;;0.03;0.03;;;;;;;;;;6247172;28;20028;-83
2023/08/28 06:04:09;;;;;;;0.10;0.10;;;;;;;;;;6266516;28;20112;-83
2023/08/28 06:07:09;;;;;;;0.10;0.10;;;;;;;;;;6267424;28;20029;-83
2023/08/28 06:10:11;;;;;;;0.00;0.00;;;;;;;;;;6248077;28;20032;-84
2023/08/28 06:13:12;;;;;;;0.00;0.00;;;;;;;;;;6266511;28;20033;-82
2023/08/28 06:16:12;;;;;;;0.00;0.00;;;;;;;;;;6248402;28;20119;-84
2023/08/28 06:19:12;;;;;;;0.00;0.00;;;;;;;;;;6245081;28;20021;-83
2023/08/28 06:22:12;;;;;;;0.00;0.00;;;;;;;;;;6248669;28;20044;-83
2023/08/28 06:25:12;;;;;;;0.00;0.00;;;;;;;;;;6248613;28;20136;-83
2023/08/28 06:28:13;;;;;;;0.00;0.00;;;;;;;;;;6257877;28;20599;-83
2023/08/28 06:31:13;;;;;;;0.10;0.10;;;;;;;;;;6252571;28;20027;-83
2023/08/28 06:34:14;;;;;;;0.00;0.00;;;;;;;;;;6268865;28;20070;-83
2023/08/28 06:37:14;;;;;;;0.00;0.00;;;;;;;;;;6274130;28;20157;-84
2023/08/28 06:40:15;;;;;;;0.00;0.00;;;;;;;;;;6270235;28;20064;-83
2023/08/28 06:43:15;;;;;;;0.00;0.00;;;;;;;;;;6249182;28;20082;-84
2023/08/28 06:46:15;;;;;;;0.00;0.00;;;;;;;;;;6251970;28;20044;-82
2023/08/28 06:49:15;;;;;;;0.00;0.00;;;;;;;;;;6270837;28;20503;-83
2023/08/28 06:52:16;;;;;;;0.10;0.10;;;;;;;;;;6253409;28;20009;-83
2023/08/28 06:55:16;;;;;;;0.00;0.00;;;;;;;;;;6252549;28;20036;-83
2023/08/28 06:58:16;;;;;;;0.00;0.00;;;;;;;;;;6253811;28;20029;-83
2023/08/28 07:01:16;;;;;;;0.00;0.00;;;;;;;;;;6253361;28;20116;-82
2023/08/28 07:04:17;;;;;;;0.00;0.00;;;;;;;;;;6271287;28;20017;-83
2023/08/28 07:07:20;;;;;;;0.00;0.00;;;;;;;;;;6270958;28;20092;-83
2023/08/28 07:10:20;;;;;;;0.00;0.00;;;;;;;;;;6252861;28;20107;-83
2023/08/28 07:13:20;;;;;;;0.03;0.03;;;;;;;;;;6267462;28;20028;-84
2023/08/28 07:16:21;;;;;;;0.00;0.00;;;;;;;;;;6252778;28;20432;-83
2023/08/28 07:19:21;;;;;;;0.00;0.00;;;;;;;;;;6252422;28;20025;-83
2023/08/28 07:22:22;;;;;;;0.00;0.00;;;;;;;;;;6251035;28;20064;-83
2023/08/28 07:25:22;;;;;;;0.00;0.00;;;;;;;;;;6262591;28;20021;-84
2023/08/28 07:28:23;;;;;;;0.00;0.00;;;;;;;;;;6269977;28;20086;-84
2023/08/28 07:31:23;;;;;;;0.10;0.10;;;;;;;;;;6272451;28;20052;-83
2023/08/28 07:34:23;;;;;;;0.03;0.03;;;;;;;;;;6272638;28;20055;-83
2023/08/28 07:37:23;;;;;;;0.00;0.00;;;;;;;;;;6267576;28;20036;-83
2023/08/28 07:40:24;;;;;;;0.00;0.00;;;;;;;;;;6254254;28;20380;-83
2023/08/28 07:43:24;;;;;;;0.00;0.00;;;;;;;;;;6252536;28;20029;-84
2023/08/28 07:46:25;;;;;;;0.00;0.00;;;;;;;;;;6269994;28;20029;-83
2023/08/28 07:49:26;;;;;;;0.00;0.00;;;;;;;;;;6251726;28;20094;-83
2023/08/28 07:52:26;;;;;;;0.00;0.00;;;;;;;;;;6250947;28;20053;-83
2023/08/28 07:55:26;;;;;;;0.00;0.00;;;;;;;;;;6270382;28;20380;-84
2023/08/28 07:58:27;;;;;;;0.00;0.00;;;;;;;;;;6260502;28;20032;-83
2023/08/28 08:01:27;;;;;;;0.10;0.10;;;;;;;;;;6256057;28;20075;-83
2023/08/28 08:04:27;;;;;;;0.00;0.00;;;;;;;;;;6252249;28;20049;-84
2023/08/28 08:07:27;;;;;;;0.00;0.00;;;;;;;;;;6251755;28;20025;-84
2023/08/28 08:10:28;;;;;;;0.00;0.00;;;;;;;;;;6250534;28;20069;-84
2023/08/28 08:13:29;;;;;;;0.00;0.00;;;;;;;;;;6249281;28;20029;-83
2023/08/28 08:16:29;;;;;;;0.00;0.00;;;;;;;;;;6250445;28;20073;-84
2023/08/28 08:19:29;;;;;;;0.00;0.00;;;;;;;;;;6269308;28;20020;-83
2023/08/28 08:22:29;;;;;;;0.00;0.00;;;;;;;;;;6269367;28;20025;-83
2023/08/28 08:25:30;;;;;;;0.00;0.00;;;;;;;;;;6276363;28;20033;-84
2023/08/28 08:28:32;;;;;;;0.00;0.00;;;;;;;;;;6266076;28;20079;-84
2023/08/28 08:31:32;;;;;;;0.00;0.00;;;;;;;;;;6251277;28;20021;-84
2023/08/28 08:34:32;;;;;;;0.00;0.00;;;;;;;;;;6247450;28;20021;-83
2023/08/28 08:37:33;;;;;;;0.00;0.00;;;;;;;;;;6249215;28;20107;-84
2023/08/28 08:40:34;;;;;;;0.00;0.00;;;;;;;;;;6268766;28;20021;-83
2023/08/28 08:43:35;;;;;;;0.00;0.00;;;;;;;;;;6249818;28;20033;-83
2023/08/28 08:46:35;;;;;;;0.00;0.00;;;;;;;;;;6248855;28;20452;-83
2023/08/28 08:49:38;;;;;;;0.00;0.00;;;;;;;;;;6267646;28;20027;-83
2023/08/28 08:52:40;;;;;;;0.00;0.00;;;;;;;;;;6260761;28;20079;-82
2023/08/28 08:55:42;;;;;;;0.00;0.00;;;;;;;;;;6250337;28;20112;-84
2023/08/28 08:58:43;;;;;;;0.00;0.00;;;;;;;;;;6252690;28;20110;-84
2023/08/28 09:01:43;;;;;;;0.00;0.00;;;;;;;;;;6250141;28;20434;-83
2023/08/28 09:04:44;;;;;;;0.00;0.00;;;;;;;;;;6267871;28;20498;-84
2023/08/28 09:07:45;;;;;;;0.00;0.00;;;;;;;;;;6249647;28;20070;-83
2023/08/28 09:10:46;;;;;;;0.00;0.00;;;;;;;;;;6266240;28;20120;-83
2023/08/28 09:13:47;;;;;;;0.00;0.00;;;;;;;;;;6267075;28;20017;-84
2023/08/28 09:16:47;;;;;;;0.00;0.00;;;;;;;;;;6267971;28;20068;-83
2023/08/28 09:19:47;;;;;;;0.00;0.00;;;;;;;;;;6249845;28;20471;-83
2023/08/28 09:22:57;;;;;;;0.00;0.00;;;;;;;;;;6250427;28;20025;-83
2023/08/28 09:25:57;;;;;;;0.00;0.00;;;;;;;;;;6248715;28;20024;-84
2023/08/28 09:29:04;;;;;;;0.00;0.00;;;;;;;;;;6267618;28;20135;-84
2023/08/28 09:32:04;;;;;;;0.00;0.00;;;;;;;;;;6264716;28;20020;-83
2023/08/28 09:35:07;;;;;;;0.10;0.10;;;;;;;;;;6249605;28;20033;-84
2023/08/28 09:38:08;;;;;;;0.00;0.00;;;;;;;;;;6249554;28;20064;-84
2023/08/28 09:41:09;;;;;;;0.00;0.00;;;;;;;;;;6264837;28;20497;-84
2023/08/28 09:44:10;;;;;;;0.00;0.00;;;;;;;;;;6246439;28;20028;-83
2023/08/28 09:47:11;;;;;;;0.00;0.00;;;;;;;;;;6248926;28;20027;-83
2023/08/28 09:50:11;;;;;;;0.00;0.00;;;;;;;;;;6266948;28;20029;-85
2023/08/28 09:53:12;;;;;;;0.00;0.00;;;;;;;;;;6258383;28;20105;-83
2023/08/28 09:56:17;;;;;;;0.00;0.00;;;;;;;;;;6251413;28;20746;-83
2023/08/28 09:59:18;;;;;;;0.00;0.00;;;;;;;;;;6261305;28;20108;-85
2023/08/28 10:02:20;;;;;;;0.00;0.00;;;;;;;;;;6244886;28;20546;-85
2023/08/28 10:05:21;;;;;;;0.00;0.00;;;;;;;;;;6266170;28;20029;-85
2023/08/28 10:08:25;;;;;;;0.00;0.00;;;;;;;;;;6265021;28;20550;-95
2023/08/28 10:11:30;;;;;;;0.00;0.00;;;;;;;;;;6249986;28;20085;-95
2023/08/28 10:14:31;;;;;;;0.00;0.00;;;;;;;;;;6250569;28;20044;-94
2023/08/28 10:17:32;;;;;;;0.00;0.00;;;;;;;;;;6250908;28;20029;-94
2023/08/28 10:20:34;;;;;;;0.00;0.00;;;;;;;;;;6267558;28;20029;-95
2023/08/28 10:23:34;;;;;;;0.00;0.00;;;;;;;;;;6251763;28;20033;-95
2023/08/28 10:26:35;;;;;;;0.00;0.00;;;;;;;;;;6259816;28;20512;-95
2023/08/28 10:29:36;;;;;;;0.00;0.00;;;;;;;;;;6251234;28;20271;-95
2023/08/28 10:32:37;;;;;;;0.00;0.00;;;;;;;;;;6245312;28;20025;-96
2023/08/28 10:35:40;;;;;;;0.00;0.00;;;;;;;;;;6247783;28;20025;-95
2023/08/28 10:38:40;;;;;;;0.00;0.00;;;;;;;;;;6249638;28;20369;-95
2023/08/28 10:41:41;;;;;;;0.00;0.00;;;;;;;;;;6260985;28;20079;-94
2023/08/28 10:44:42;;;;;;;0.00;0.00;;;;;;;;;;6246798;28;20475;-95
2023/08/28 10:47:49;;;;;;;0.00;0.00;;;;;;;;;;6266913;28;20040;-94
2023/08/28 10:50:55;;;;;;;0.00;0.00;;;;;;;;;;6264035;28;20021;-94
2023/08/28 10:53:58;;;;;;;0.00;0.00;;;;;;;;;;6266160;28;20521;-95
2023/08/28 10:57:00;;;;;;;0.00;0.00;;;;;;;;;;6248304;28;20035;-95
2023/08/28 11:00:02;;;;;;;0.00;0.00;;;;;;;;;;6247994;28;20106;-95
2023/08/28 11:03:08;;;;;;;0.00;0.00;;;;;;;;;;6249332;28;20054;-93
2023/08/28 11:06:27;;;;;;;0.00;0.00;;;;;;;;;;6266909;28;20044;-94
2023/08/28 11:09:30;;;;;;;0.00;0.00;;;;;;;;;;6267279;28;20053;-94
2023/08/28 11:12:41;;;;;;;0.00;0.00;;;;;;;;;;6274196;28;20098;-93
2023/08/28 11:15:41;;;;;;;;;;;;;;;;;;6263534;28;20528;-94
2023/08/28 11:18:42;;;;;;;0.00;0.00;;;;;;;;;;6275339;28;19909;-93
2023/08/28 11:21:42;;;;;;;0.00;0.00;;;;;;;;;;6237315;28;20425;-93
2023/08/28 11:24:51;;;;;;;0.00;0.00;;;;;;;;;;6254159;28;20074;-93
2023/08/28 11:27:56;;;;;;;0.00;0.00;;;;;;;;;;6253472;28;20020;-88
2023/08/28 11:31:01;;;;;;;0.00;0.00;;;;;;;;;;6268008;28;20028;-87
2023/08/28 11:34:01;;;;;;;0.00;0.00;;;;;;;;;;6269813;28;20100;-87
2023/08/28 11:37:01;;;;;;;0.00;0.00;;;;;;;;;;6252138;28;20028;-85
2023/08/28 11:40:05;;;;;;;0.00;0.00;;;;;;;;;;6268010;28;20024;-84
2023/08/28 11:43:06;;;;;;;0.00;0.00;;;;;;;;;;6251569;28;20028;-84
2023/08/28 11:46:07;;;;;;;0.00;0.00;;;;;;;;;;6267413;28;20020;-84
2023/08/28 11:49:07;;;;;;;0.00;0.00;;;;;;;;;;6252073;28;20167;-84
2023/08/28 11:52:14;;;;;;;0.00;0.00;;;;;;;;;;6245575;28;20517;-85
2023/08/28 11:55:14;;;;;;;0.00;0.00;;;;;;;;;;6267147;28;20028;-84
2023/08/28 11:58:15;;;;;;;0.00;0.00;;;;;;;;;;6265979;28;20472;-84
2023/08/28 12:01:15;;;;;;;0.00;0.00;;;;;;;;;;6266345;28;20028;-85
2023/08/28 12:04:15;;;;;;;0.00;0.00;;;;;;;;;;6268019;28;20013;-84
2023/08/28 12:07:16;;;;;;;0.00;0.00;;;;;;;;;;6267163;28;20024;-84
2023/08/28 12:10:17;;;;;;;0.00;0.00;;;;;;;;;;6265021;28;20403;-83
2023/08/28 12:13:19;;;;;;;0.00;0.00;;;;;;;;;;6269070;28;20544;-84
2023/08/28 12:16:19;;;;;;;0.00;0.00;;;;;;;;;;6251206;28;20020;-84
2023/08/28 12:19:21;;;;;;;0.00;0.00;;;;;;;;;;6251088;28;20096;-84
2023/08/28 12:22:21;;;;;;;0.00;0.00;;;;;;;;;;6269256;28;20067;-84
2023/08/28 12:25:29;;;;;;;0.00;0.00;;;;;;;;;;6250687;28;20025;-85
2023/08/28 12:28:29;;;;;;;0.00;0.00;;;;;;;;;;6266654;28;20094;-84
2023/08/28 12:31:31;;;;;;;0.00;0.00;;;;;;;;;;6268038;28;20475;-84
2023/08/28 12:34:31;;;;;;;0.00;0.00;;;;;;;;;;6250751;28;20083;-84
2023/08/28 12:37:35;;;;;;;0.00;0.00;;;;;;;;;;6268461;28;20027;-84
2023/08/28 12:40:35;;;;;;;0.00;0.00;;;;;;;;;;6250170;28;20086;-84
2023/08/28 12:43:36;;;;;;;0.00;0.00;;;;;;;;;;6268648;28;20522;-84
2023/08/28 12:46:36;;;;;;;0.00;0.00;;;;;;;;;;6268168;28;20047;-84
2023/08/28 12:49:36;;;;;;;0.00;0.00;;;;;;;;;;6250189;28;20510;-85
2023/08/28 12:52:36;;;;;;;0.00;0.00;;;;;;;;;;6268417;28;20013;-84
2023/08/28 12:55:37;;;;;;;0.00;0.00;;;;;;;;;;6268337;28;20036;-84
2023/08/28 12:58:38;;;;;;;0.00;0.00;;;;;;;;;;6250158;28;20033;-84
2023/08/28 13:01:38;;;;;;;0.00;0.00;;;;;;;;;;6265453;28;20502;-84
2023/08/28 13:04:41;;;;;;;0.00;0.00;;;;;;;;;;6245436;28;20021;-85
2023/08/28 13:07:42;;;;;;;0.00;0.00;;;;;;;;;;6249864;28;20017;-84
2023/08/28 13:10:42;;;;;;;0.00;0.00;;;;;;;;;;6249379;28;20574;-83
2023/08/28 13:13:42;;;;;;;0.00;0.00;;;;;;;;;;6249058;28;20078;-84
2023/08/28 13:16:42;;;;;;;0.00;0.00;;;;;;;;;;6267799;28;20023;-84
2023/08/28 13:19:43;;;;;;;0.00;0.00;;;;;;;;;;6267592;28;20013;-83
2023/08/28 13:22:43;;;;;;;0.00;0.00;;;;;;;;;;6268273;28;20021;-83
2023/08/28 13:25:43;;;;;;;0.00;0.00;;;;;;;;;;6268054;28;20523;-83
2023/08/28 13:28:44;;;;;;;0.00;0.00;;;;;;;;;;6268025;28;20021;-83
2023/08/28 13:31:44;;;;;;;0.00;0.00;;;;;;;;;;6268703;28;20060;-84
2023/08/28 13:34:44;;;;;;;0.00;0.00;;;;;;;;;;6266013;28;20467;-83
2023/08/28 13:37:44;;;;;;;0.00;0.00;;;;;;;;;;6265642;28;20071;-84
2023/08/28 13:40:45;;;;;;;0.00;0.00;;;;;;;;;;6264228;28;20024;-84
2023/08/28 13:43:45;;;;;;;0.00;0.00;;;;;;;;;;6246398;28;20399;-83
2023/08/28 13:46:45;;;;;;;0.00;0.00;;;;;;;;;;6264634;28;20513;-84
2023/08/28 13:49:45;;;;;;;0.00;0.00;;;;;;;;;;6245591;28;20009;-84
2023/08/28 13:52:46;;;;;;;0.00;0.00;;;;;;;;;;6263926;28;20462;-83
2023/08/28 13:55:52;;;;;;;0.00;0.00;;;;;;;;;;6264633;28;20096;-83
2023/08/28 13:58:52;;;;;;;0.00;0.00;;;;;;;;;;6248320;28;20021;-82
2023/08/28 14:01:53;;;;;;;0.00;0.00;;;;;;;;;;6246808;28;20155;-84
2023/08/28 14:04:53;;;;;;;0.00;0.00;;;;;;;;;;6235113;28;20727;-84
2023/08/28 14:07:53;;;;;;;0.00;0.00;;;;;;;;;;6262732;28;20029;-84
2023/08/28 14:10:53;;;;;;;0.00;0.00;;;;;;;;;;6247679;28;20061;-83
2023/08/28 14:13:54;;;;;;;0.00;0.00;;;;;;;;;;6265578;28;20061;-84
2023/08/28 14:16:54;;;;;;;0.00;0.00;;;;;;;;;;6245082;28;20021;-84
2023/08/28 14:19:54;;;;;;;0.00;0.00;;;;;;;;;;6246964;28;20017;-84
2023/08/28 14:22:55;;;;;;;0.00;0.00;;;;;;;;;;6248781;28;20135;-84
2023/08/28 14:26:00;;;;;;;0.00;0.00;;;;;;;;;;6266768;28;20044;-84
2023/08/28 14:29:00;;;;;;;0.00;0.00;;;;;;;;;;6246947;28;20028;-84
2023/08/28 14:32:01;;;;;;;0.00;0.00;;;;;;;;;;6271837;28;20072;-85
2023/08/28 14:35:02;;;;;;;0.00;0.00;;;;;;;;;;6266995;28;20551;-84
2023/08/28 14:38:03;;;;;;;0.00;0.00;;;;;;;;;;6255421;28;20033;-85
2023/08/28 14:41:03;;;;;;;0.07;0.07;;;;;;;;;;6254021;28;20017;-85
2023/08/28 14:44:03;;;;;;;0.00;0.00;;;;;;;;;;6266321;28;20021;-85
2023/08/28 14:47:04;;;;;;;0.00;0.00;;;;;;;;;;6264963;28;20056;-85
2023/08/28 14:50:05;;;;;;;0.00;0.00;;;;;;;;;;6262839;28;20859;-85
2023/08/28 14:53:05;;;;;;;0.00;0.00;;;;;;;;;;6250642;28;20029;-85
2023/08/28 14:56:05;;;;;;;0.00;0.00;;;;;;;;;;6269619;28;20154;-86
2023/08/28 14:59:05;;;;;;;0.00;0.00;;;;;;;;;;6266582;28;20433;-85
2023/08/28 15:02:07;;;;;;;0.00;0.00;;;;;;;;;;6265580;28;20052;-85
2023/08/28 15:05:08;;;;;;;0.00;0.00;;;;;;;;;;6260810;28;20064;-85
2023/08/28 15:08:08;;;;;;;0.00;0.00;;;;;;;;;;6253909;28;20479;-85
2023/08/28 15:11:09;;;;;;;0.00;0.00;;;;;;;;;;6261792;28;20535;-85
2023/08/28 15:14:09;;;;;;;0.00;0.00;;;;;;;;;;6266529;28;20020;-85
2023/08/28 15:17:10;;;;;;;0.00;0.00;;;;;;;;;;6251806;28;20489;-85
2023/08/28 15:20:10;;;;;;;0.00;0.00;;;;;;;;;;6252284;28;20617;-85
2023/08/28 15:23:10;;;;;;;0.00;0.00;;;;;;;;;;6270679;28;20020;-85
2023/08/28 15:26:14;;;;;;;0.00;0.00;;;;;;;;;;6270456;28;20025;-85
2023/08/28 15:29:14;;;;;;;0.00;0.00;;;;;;;;;;6255507;28;20009;-85
2023/08/28 15:32:14;;;;;;;0.00;0.00;;;;;;;;;;6252181;28;20048;-85
2023/08/28 15:35:15;;;;;;;0.00;0.00;;;;;;;;;;6246759;28;20021;-85
2023/08/28 15:38:15;;;;;;;0.00;0.00;;;;;;;;;;6252543;28;20044;-85
2023/08/28 15:41:15;;;;;;;0.00;0.00;;;;;;;;;;6270205;28;20031;-86
2023/08/28 15:44:15;;;;;;;0.00;0.00;;;;;;;;;;6270352;28;20541;-85
2023/08/28 15:47:16;;;;;;;0.00;0.00;;;;;;;;;;6269493;28;20479;-85
2023/08/28 15:50:16;;;;;;;0.00;0.00;;;;;;;;;;6267936;28;20006;-85
2023/08/28 15:53:16;;;;;;;0.00;0.00;;;;;;;;;;6249664;28;20542;-85
2023/08/28 15:56:16;;;;;;;0.00;0.00;;;;;;;;;;6268490;28;20664;-86
2023/08/28 15:59:17;;;;;;;0.00;0.00;;;;;;;;;;6268958;28;20091;-85
2023/08/28 16:02:17;;;;;;;0.00;0.00;;;;;;;;;;6269893;28;20017;-85
2023/08/28 16:05:17;;;;;;;0.00;0.00;;;;;;;;;;6249488;28;20585;-85
2023/08/28 16:08:17;;;;;;;0.10;0.10;;;;;;;;;;6269917;28;20490;-85
2023/08/28 16:11:18;;;;;;;0.00;0.00;;;;;;;;;;6251808;28;20124;-86
2023/08/28 16:14:18;;;;;;;0.00;0.00;;;;;;;;;;6268053;28;20028;-85
2023/08/28 16:17:18;;;;;;;0.00;0.00;;;;;;;;;;6267719;28;20056;-86
2023/08/28 16:20:19;;;;;;;0.00;0.00;;;;;;;;;;6274998;28;20472;-86
2023/08/28 16:23:22;;;;;;;0.00;0.00;;;;;;;;;;6251033;28;20017;-85
2023/08/28 16:26:22;;;;;;;0.00;0.00;;;;;;;;;;6269282;28;20028;-84
2023/08/28 16:29:22;;;;;;;0.00;0.00;;;;;;;;;;6268968;28;20012;-83
2023/08/28 16:32:22;;;;;;;0.10;0.10;;;;;;;;;;6267946;28;20395;-85
2023/08/28 16:35:23;;;;;;;0.10;0.10;;;;;;;;;;6267781;28;20031;-85
2023/08/28 16:38:23;;;;;;;0.00;0.00;;;;;;;;;;6268359;28;20027;-84
2023/08/28 16:41:24;;;;;;;0.00;0.00;;;;;;;;;;6267759;28;20248;-85
2023/08/28 16:44:24;;;;;;;0.03;0.03;;;;;;;;;;6266833;28;20086;-84
2023/08/28 16:47:24;;;;;;;0.00;0.00;;;;;;;;;;6251105;28;20087;-84
2023/08/28 16:50:24;;;;;;;0.00;0.00;;;;;;;;;;6268680;28;20480;-85
2023/08/28 16:53:25;;;;;;;0.00;0.00;;;;;;;;;;6268570;28;20557;-85
2023/08/28 16:56:25;;;;;;;0.00;0.00;;;;;;;;;;6268292;28;20099;-85
2023/08/28 16:59:26;;;;;;;0.00;0.00;;;;;;;;;;6267798;28;20475;-84
2023/08/28 17:02:26;;;;;;;0.00;0.00;;;;;;;;;;6266410;28;20024;-85
2023/08/28 17:05:29;;;;;;;0.00;0.00;;;;;;;;;;6267995;28;20466;-85
2023/08/28 17:08:29;;;;;;;0.00;0.00;;;;;;;;;;6267695;28;20024;-84
2023/08/28 17:11:30;;;;;;;0.07;0.07;;;;;;;;;;6268098;28;20045;-85
2023/08/28 17:14:30;;;;;;;0.00;0.00;;;;;;;;;;6249774;28;20029;-84
2023/08/28 17:17:32;;;;;;;0.00;0.00;;;;;;;;;;6266975;28;20454;-84
2023/08/28 17:20:32;;;;;;;0.10;0.10;;;;;;;;;;6267558;28;20025;-84
2023/08/28 17:23:32;;;;;;;0.00;0.00;;;;;;;;;;6262122;28;20024;-83
2023/08/28 17:26:33;;;;;;;0.03;0.03;;;;;;;;;;6249443;28;20480;-84
2023/08/28 17:29:33;;;;;;;0.00;0.00;;;;;;;;;;6249823;28;20171;-87
2023/08/28 17:32:37;;;;;;;0.00;0.00;;;;;;;;;;6268143;28;20021;-87
2023/08/28 17:35:37;;;;;;;0.00;0.00;;;;;;;;;;6267952;28;20028;-87
2023/08/28 17:38:37;;;;;;;0.10;0.10;;;;;;;;;;6267488;28;20499;-88
2023/08/28 17:41:37;;;;;;;0.00;0.00;;;;;;;;;;6263516;28;20495;-87
2023/08/28 17:44:38;;;;;;;0.00;0.00;;;;;;;;;;6265849;28;20021;-87
2023/08/28 17:47:38;;;;;;;0.10;0.10;;;;;;;;;;6267652;28;20049;-87
2023/08/28 17:50:43;;;;;;;0.00;0.00;;;;;;;;;;6247521;28;20032;-87
2023/08/28 17:53:43;;;;;;;0.00;0.00;;;;;;;;;;6254555;28;20028;-86
2023/08/28 17:56:47;;;;;;;0.10;0.10;;;;;;;;;;6266016;28;20380;-87
2023/08/28 17:59:48;;;;;;;0.00;0.00;;;;;;;;;;6263794;28;20485;-87
2023/08/28 18:02:48;;;;;;;0.10;0.10;;;;;;;;;;6260268;28;20031;-87
2023/08/28 18:05:49;;;;;;;0.00;0.00;;;;;;;;;;6259934;28;20090;-86